Terminal Aerodrome Forecast
Issued by NWS Shreveport, LA

Home | Current Version | Previous Version | Text Only | Print | Product List | Glossary On
Versions: 1 2 3 4 5 6 7 8 9 10 11 12 13
405
FTUS44 KSHV 022344
TAFSHV
TAF
KSHV 022344Z 0300/0324 08006KT P6SM FEW100 SCT160 BKN270
     FM030600 08008KT 6SM -RA OVC035
     FM031200 07013KT 5SM RA BR OVC010
     FM032100 07015KT 3SM -RA BR OVC007=

USA.gov is the U.S. government's official web portal to all federal, state and local government web resources and services.